sensor_id;sensor_type;location;lat;lon;timestamp;temperature;humidity
20815;DHT22;10568;48.176;16.316;2023-07-31T00:01:19;17.40;99.90
20815;DHT22;10568;48.176;16.316;2023-07-31T00:03:46;17.30;99.90
20815;DHT22;10568;48.176;16.316;2023-07-31T00:06:12;17.30;99.90
20815;DHT22;10568;48.176;16.316;2023-07-31T00:08:38;17.30;99.90
20815;DHT22;10568;48.176;16.316;2023-07-31T00:11:03;17.30;99.90
20815;DHT22;10568;48.176;16.316;2023-07-31T00:13:29;17.20;99.90
20815;DHT22;10568;48.176;16.316;2023-07-31T00:15:55;17.20;99.90
20815;DHT22;10568;48.176;16.316;2023-07-31T00:18:21;17.20;99.90
20815;DHT22;10568;48.176;16.316;2023-07-31T00:20:47;17.20;99.90
20815;DHT22;10568;48.176;16.316;2023-07-31T00:23:12;17.10;99.90
20815;DHT22;10568;48.176;16.316;2023-07-31T00:25:38;17.10;99.90
20815;DHT22;10568;48.176;16.316;2023-07-31T00:28:04;17.10;99.90
20815;DHT22;10568;48.176;16.316;2023-07-31T00:30:30;17.00;99.90
20815;DHT22;10568;48.176;16.316;2023-07-31T00:32:55;17.00;99.90
20815;DHT22;10568;48.176;16.316;2023-07-31T00:35:21;16.90;99.90
20815;DHT22;10568;48.176;16.316;2023-07-31T00:37:47;16.90;99.90
20815;DHT22;10568;48.176;16.316;2023-07-31T00:40:12;16.90;99.90
20815;DHT22;10568;48.176;16.316;2023-07-31T00:42:39;16.80;99.90
20815;DHT22;10568;48.176;16.316;2023-07-31T00:45:05;16.80;99.90
20815;DHT22;10568;48.176;16.316;2023-07-31T00:47:31;16.80;99.90
20815;DHT22;10568;48.176;16.316;2023-07-31T00:49:57;16.70;99.90
20815;DHT22;10568;48.176;16.316;2023-07-31T00:52:32;16.70;99.90
20815;DHT22;10568;48.176;16.316;2023-07-31T00:54:58;16.60;99.90
20815;DHT22;10568;48.176;16.316;2023-07-31T00:57:24;16.60;99.90
20815;DHT22;10568;48.176;16.316;2023-07-31T00:59:50;16.60;99.90
20815;DHT22;10568;48.176;16.316;2023-07-31T01:02:16;16.60;99.90
20815;DHT22;10568;48.176;16.316;2023-07-31T01:04:43;16.50;99.90
20815;DHT22;10568;48.176;16.316;2023-07-31T01:07:31;16.50;99.90
20815;DHT22;10568;48.176;16.316;2023-07-31T01:10:08;16.50;99.90
20815;DHT22;10568;48.176;16.316;2023-07-31T01:12:36;16.50;99.90
20815;DHT22;10568;48.176;16.316;2023-07-31T01:15:08;16.50;99.90
20815;DHT22;10568;48.176;16.316;2023-07-31T01:17:41;16.50;99.90
20815;DHT22;10568;48.176;16.316;2023-07-31T01:20:27;16.50;99.90
20815;DHT22;10568;48.176;16.316;2023-07-31T01:26:12;16.60;99.90
20815;DHT22;10568;48.176;16.316;2023-07-31T01:31:25;16.60;99.90
20815;DHT22;10568;48.176;16.316;2023-07-31T01:33:53;16.60;99.90
20815;DHT22;10568;48.176;16.316;2023-07-31T01:36:20;16.60;99.90
20815;DHT22;10568;48.176;16.316;2023-07-31T01:38:46;16.60;99.90
20815;DHT22;10568;48.176;16.316;2023-07-31T01:41:11;16.60;99.90
20815;DHT22;10568;48.176;16.316;2023-07-31T01:43:37;16.50;99.90
20815;DHT22;10568;48.176;16.316;2023-07-31T01:46:03;16.50;99.90
20815;DHT22;10568;48.176;16.316;2023-07-31T01:48:28;16.50;99.90
20815;DHT22;10568;48.176;16.316;2023-07-31T01:50:54;16.40;99.90
20815;DHT22;10568;48.176;16.316;2023-07-31T01:53:20;16.40;99.90
20815;DHT22;10568;48.176;16.316;2023-07-31T01:56:01;16.40;99.90
20815;DHT22;10568;48.176;16.316;2023-07-31T01:58:26;16.40;99.90
20815;DHT22;10568;48.176;16.316;2023-07-31T02:00:52;16.40;99.90
20815;DHT22;10568;48.176;16.316;2023-07-31T02:03:18;16.40;99.90
20815;DHT22;10568;48.176;16.316;2023-07-31T02:05:47;16.30;99.90
20815;DHT22;10568;48.176;16.316;2023-07-31T02:08:14;16.40;99.90
20815;DHT22;10568;48.176;16.316;2023-07-31T02:10:39;16.40;99.90
20815;DHT22;10568;48.176;16.316;2023-07-31T02:13:05;16.30;99.90
20815;DHT22;10568;48.176;16.316;2023-07-31T02:15:31;16.30;99.90
20815;DHT22;10568;48.176;16.316;2023-07-31T02:17:57;16.30;99.90
20815;DHT22;10568;48.176;16.316;2023-07-31T02:20:22;16.30;99.90
20815;DHT22;10568;48.176;16.316;2023-07-31T02:22:48;16.40;99.90
20815;DHT22;10568;48.176;16.316;2023-07-31T02:25:14;16.30;99.90
20815;DHT22;10568;48.176;16.316;2023-07-31T02:27:39;16.30;99.90
20815;DHT22;10568;48.176;16.316;2023-07-31T02:30:06;16.30;99.90
20815;DHT22;10568;48.176;16.316;2023-07-31T02:32:31;16.30;99.90
20815;DHT22;10568;48.176;16.316;2023-07-31T02:34:57;16.30;99.90
20815;DHT22;10568;48.176;16.316;2023-07-31T02:37:23;16.30;99.90
20815;DHT22;10568;48.176;16.316;2023-07-31T02:39:49;16.30;99.90
20815;DHT22;10568;48.176;16.316;2023-07-31T02:42:15;16.30;99.90
20815;DHT22;10568;48.176;16.316;2023-07-31T02:44:40;16.30;99.90
20815;DHT22;10568;48.176;16.316;2023-07-31T02:47:06;16.40;99.90
20815;DHT22;10568;48.176;16.316;2023-07-31T02:49:32;16.40;99.90
20815;DHT22;10568;48.176;16.316;2023-07-31T02:51:57;16.30;99.90
20815;DHT22;10568;48.176;16.316;2023-07-31T02:54:23;16.40;99.90
20815;DHT22;10568;48.176;16.316;2023-07-31T02:57:07;16.40;99.90
20815;DHT22;10568;48.176;16.316;2023-07-31T02:59:33;16.40;99.90
20815;DHT22;10568;48.176;16.316;2023-07-31T03:01:59;16.40;99.90
20815;DHT22;10568;48.176;16.316;2023-07-31T03:04:24;16.30;99.90
20815;DHT22;10568;48.176;16.316;2023-07-31T03:06:50;16.40;99.90
20815;DHT22;10568;48.176;16.316;2023-07-31T03:09:16;16.30;99.90
20815;DHT22;10568;48.176;16.316;2023-07-31T03:11:41;16.40;99.90
20815;DHT22;10568;48.176;16.316;2023-07-31T03:14:07;16.30;99.90
20815;DHT22;10568;48.176;16.316;2023-07-31T03:16:33;16.30;99.90
20815;DHT22;10568;48.176;16.316;2023-07-31T03:18:58;16.30;99.90
20815;DHT22;10568;48.176;16.316;2023-07-31T03:21:24;16.30;99.90
20815;DHT22;10568;48.176;16.316;2023-07-31T03:23:50;16.30;99.90
20815;DHT22;10568;48.176;16.316;2023-07-31T03:26:15;16.20;99.90
20815;DHT22;10568;48.176;16.316;2023-07-31T03:28:41;16.30;99.90
20815;DHT22;10568;48.176;16.316;2023-07-31T03:31:07;16.30;99.90
20815;DHT22;10568;48.176;16.316;2023-07-31T03:33:33;16.20;99.90
20815;DHT22;10568;48.176;16.316;2023-07-31T03:35:59;16.20;99.90
20815;DHT22;10568;48.176;16.316;2023-07-31T03:38:25;16.20;99.90
20815;DHT22;10568;48.176;16.316;2023-07-31T03:40:51;16.20;99.90
20815;DHT22;10568;48.176;16.316;2023-07-31T03:43:16;16.20;99.90
20815;DHT22;10568;48.176;16.316;2023-07-31T03:45:42;16.20;99.90
20815;DHT22;10568;48.176;16.316;2023-07-31T03:48:08;16.20;99.90
20815;DHT22;10568;48.176;16.316;2023-07-31T03:50:34;16.20;99.90
20815;DHT22;10568;48.176;16.316;2023-07-31T03:52:59;16.20;99.90
20815;DHT22;10568;48.176;16.316;2023-07-31T03:55:25;16.30;99.90
20815;DHT22;10568;48.176;16.316;2023-07-31T03:57:51;16.30;99.90
20815;DHT22;10568;48.176;16.316;2023-07-31T04:00:17;16.40;99.90
20815;DHT22;10568;48.176;16.316;2023-07-31T04:02:42;16.40;99.90
20815;DHT22;10568;48.176;16.316;2023-07-31T04:05:08;16.50;99.90
20815;DHT22;10568;48.176;16.316;2023-07-31T04:07:34;16.60;99.90
20815;DHT22;10568;48.176;16.316;2023-07-31T04:09:59;16.70;99.90
20815;DHT22;10568;48.176;16.316;2023-07-31T04:12:25;16.70;99.90
20815;DHT22;10568;48.176;16.316;2023-07-31T04:14:51;16.80;99.90
20815;DHT22;10568;48.176;16.316;2023-07-31T04:17:19;16.80;99.90
20815;DHT22;10568;48.176;16.316;2023-07-31T04:19:45;16.90;99.90
20815;DHT22;10568;48.176;16.316;2023-07-31T04:22:11;16.90;99.90
20815;DHT22;10568;48.176;16.316;2023-07-31T04:24:36;17.00;99.90
20815;DHT22;10568;48.176;16.316;2023-07-31T04:27:02;17.00;99.90
20815;DHT22;10568;48.176;16.316;2023-07-31T04:29:28;17.10;99.90
20815;DHT22;10568;48.176;16.316;2023-07-31T04:31:53;17.10;99.90
20815;DHT22;10568;48.176;16.316;2023-07-31T04:34:19;17.20;99.90
20815;DHT22;10568;48.176;16.316;2023-07-31T04:36:45;17.20;99.90
20815;DHT22;10568;48.176;16.316;2023-07-31T04:39:10;17.20;99.90
20815;DHT22;10568;48.176;16.316;2023-07-31T04:41:36;17.30;99.90
20815;DHT22;10568;48.176;16.316;2023-07-31T04:44:02;17.40;99.90
20815;DHT22;10568;48.176;16.316;2023-07-31T04:46:29;17.40;99.90
20815;DHT22;10568;48.176;16.316;2023-07-31T04:48:55;17.50;99.90
20815;DHT22;10568;48.176;16.316;2023-07-31T04:51:21;17.50;99.90
20815;DHT22;10568;48.176;16.316;2023-07-31T04:53:46;17.60;99.90
20815;DHT22;10568;48.176;16.316;2023-07-31T04:56:12;17.60;99.90
20815;DHT22;10568;48.176;16.316;2023-07-31T04:58:38;17.60;99.90
20815;DHT22;10568;48.176;16.316;2023-07-31T05:01:03;17.70;99.90
20815;DHT22;10568;48.176;16.316;2023-07-31T05:03:29;17.70;99.90
20815;DHT22;10568;48.176;16.316;2023-07-31T05:09:08;17.80;99.90
20815;DHT22;10568;48.176;16.316;2023-07-31T05:11:35;17.90;99.90
20815;DHT22;10568;48.176;16.316;2023-07-31T05:14:01;18.00;99.90
20815;DHT22;10568;48.176;16.316;2023-07-31T05:16:26;18.00;99.90
20815;DHT22;10568;48.176;16.316;2023-07-31T05:18:52;18.10;99.90
20815;DHT22;10568;48.176;16.316;2023-07-31T05:21:18;18.10;99.90
20815;DHT22;10568;48.176;16.316;2023-07-31T05:23:44;18.10;99.90
20815;DHT22;10568;48.176;16.316;2023-07-31T05:26:10;18.10;99.90
20815;DHT22;10568;48.176;16.316;2023-07-31T05:28:36;18.10;99.90
20815;DHT22;10568;48.176;16.316;2023-07-31T05:31:03;18.10;99.90
20815;DHT22;10568;48.176;16.316;2023-07-31T05:33:29;18.00;99.90
20815;DHT22;10568;48.176;16.316;2023-07-31T05:35:55;18.10;99.90
20815;DHT22;10568;48.176;16.316;2023-07-31T05:38:21;18.10;99.90
20815;DHT22;10568;48.176;16.316;2023-07-31T05:40:47;18.10;99.90
20815;DHT22;10568;48.176;16.316;2023-07-31T05:43:13;18.20;99.90
20815;DHT22;10568;48.176;16.316;2023-07-31T05:45:39;18.30;99.90
20815;DHT22;10568;48.176;16.316;2023-07-31T05:48:06;18.30;99.90
20815;DHT22;10568;48.176;16.316;2023-07-31T05:50:31;18.40;99.90
20815;DHT22;10568;48.176;16.316;2023-07-31T05:52:57;18.50;99.90
20815;DHT22;10568;48.176;16.316;2023-07-31T05:55:24;18.50;99.90
20815;DHT22;10568;48.176;16.316;2023-07-31T05:57:52;18.60;99.90
20815;DHT22;10568;48.176;16.316;2023-07-31T06:00:18;18.70;99.90
20815;DHT22;10568;48.176;16.316;2023-07-31T06:02:44;18.80;99.90
20815;DHT22;10568;48.176;16.316;2023-07-31T06:05:10;18.90;99.90
20815;DHT22;10568;48.176;16.316;2023-07-31T06:07:36;19.10;99.90
20815;DHT22;10568;48.176;16.316;2023-07-31T06:10:02;19.20;99.90
20815;DHT22;10568;48.176;16.316;2023-07-31T06:15:52;19.40;99.90
20815;DHT22;10568;48.176;16.316;2023-07-31T06:18:18;19.50;99.90
20815;DHT22;10568;48.176;16.316;2023-07-31T06:20:43;19.60;99.90
20815;DHT22;10568;48.176;16.316;2023-07-31T06:23:09;19.60;99.90
20815;DHT22;10568;48.176;16.316;2023-07-31T06:25:35;19.80;99.90
20815;DHT22;10568;48.176;16.316;2023-07-31T06:28:01;19.90;99.90
20815;DHT22;10568;48.176;16.316;2023-07-31T06:30:26;19.90;99.90
20815;DHT22;10568;48.176;16.316;2023-07-31T06:32:52;20.00;99.90
20815;DHT22;10568;48.176;16.316;2023-07-31T06:35:18;20.10;99.90
20815;DHT22;10568;48.176;16.316;2023-07-31T06:37:43;20.20;99.90
20815;DHT22;10568;48.176;16.316;2023-07-31T06:40:10;20.20;99.90
20815;DHT22;10568;48.176;16.316;2023-07-31T06:42:36;20.40;99.90
20815;DHT22;10568;48.176;16.316;2023-07-31T06:45:02;20.50;99.90
20815;DHT22;10568;48.176;16.316;2023-07-31T06:47:28;20.70;99.90
20815;DHT22;10568;48.176;16.316;2023-07-31T06:49:53;21.00;99.90
20815;DHT22;10568;48.176;16.316;2023-07-31T06:52:19;21.30;99.90
20815;DHT22;10568;48.176;16.316;2023-07-31T06:55:04;21.50;99.90
20815;DHT22;10568;48.176;16.316;2023-07-31T06:57:40;21.60;99.90
20815;DHT22;10568;48.176;16.316;2023-07-31T07:00:07;21.60;99.90
20815;DHT22;10568;48.176;16.316;2023-07-31T07:02:33;21.80;99.90
20815;DHT22;10568;48.176;16.316;2023-07-31T07:04:58;22.00;99.90
20815;DHT22;10568;48.176;16.316;2023-07-31T07:07:24;22.20;99.90
20815;DHT22;10568;48.176;16.316;2023-07-31T07:09:50;22.30;99.90
20815;DHT22;10568;48.176;16.316;2023-07-31T07:12:15;22.50;99.90
20815;DHT22;10568;48.176;16.316;2023-07-31T07:14:41;22.80;99.90
20815;DHT22;10568;48.176;16.316;2023-07-31T07:17:07;22.90;99.90
20815;DHT22;10568;48.176;16.316;2023-07-31T07:19:32;22.90;99.90
20815;DHT22;10568;48.176;16.316;2023-07-31T07:21:58;23.20;99.90
20815;DHT22;10568;48.176;16.316;2023-07-31T07:24:26;23.30;99.90
20815;DHT22;10568;48.176;16.316;2023-07-31T07:26:52;23.50;99.90
20815;DHT22;10568;48.176;16.316;2023-07-31T07:29:17;23.30;99.90
20815;DHT22;10568;48.176;16.316;2023-07-31T07:31:43;23.40;99.90
20815;DHT22;10568;48.176;16.316;2023-07-31T07:34:09;23.50;99.90
20815;DHT22;10568;48.176;16.316;2023-07-31T07:36:34;23.60;99.90
20815;DHT22;10568;48.176;16.316;2023-07-31T07:39:00;23.50;99.90
20815;DHT22;10568;48.176;16.316;2023-07-31T07:41:26;23.50;99.90
20815;DHT22;10568;48.176;16.316;2023-07-31T07:43:52;23.50;99.90
20815;DHT22;10568;48.176;16.316;2023-07-31T07:46:18;23.30;99.90
20815;DHT22;10568;48.176;16.316;2023-07-31T07:48:43;23.30;99.90
20815;DHT22;10568;48.176;16.316;2023-07-31T07:51:09;23.40;99.90
20815;DHT22;10568;48.176;16.316;2023-07-31T07:53:35;23.50;99.90
20815;DHT22;10568;48.176;16.316;2023-07-31T07:56:00;23.60;99.90
20815;DHT22;10568;48.176;16.316;2023-07-31T07:58:26;23.40;99.90
20815;DHT22;10568;48.176;16.316;2023-07-31T08:00:53;23.70;99.90
20815;DHT22;10568;48.176;16.316;2023-07-31T08:03:19;23.70;99.90
20815;DHT22;10568;48.176;16.316;2023-07-31T08:05:44;23.40;99.90
20815;DHT22;10568;48.176;16.316;2023-07-31T08:08:14;23.40;99.90
20815;DHT22;10568;48.176;16.316;2023-07-31T08:10:42;23.70;99.90
20815;DHT22;10568;48.176;16.316;2023-07-31T08:13:08;23.70;99.90
20815;DHT22;10568;48.176;16.316;2023-07-31T08:15:35;23.60;99.90
20815;DHT22;10568;48.176;16.316;2023-07-31T08:18:00;24.00;99.90
20815;DHT22;10568;48.176;16.316;2023-07-31T08:20:26;24.10;99.90
20815;DHT22;10568;48.176;16.316;2023-07-31T08:22:52;24.30;99.90
20815;DHT22;10568;48.176;16.316;2023-07-31T08:25:18;24.40;99.90
20815;DHT22;10568;48.176;16.316;2023-07-31T08:27:44;24.70;99.90
20815;DHT22;10568;48.176;16.316;2023-07-31T08:30:12;24.80;99.90
20815;DHT22;10568;48.176;16.316;2023-07-31T08:32:37;24.70;99.90
20815;DHT22;10568;48.176;16.316;2023-07-31T08:35:03;25.10;99.90
20815;DHT22;10568;48.176;16.316;2023-07-31T08:37:29;25.20;99.90
20815;DHT22;10568;48.176;16.316;2023-07-31T08:39:55;25.40;99.90
20815;DHT22;10568;48.176;16.316;2023-07-31T08:42:21;25.40;99.90
20815;DHT22;10568;48.176;16.316;2023-07-31T08:44:47;25.90;99.90
20815;DHT22;10568;48.176;16.316;2023-07-31T08:47:14;26.00;99.90
20815;DHT22;10568;48.176;16.316;2023-07-31T08:49:42;26.30;99.90
20815;DHT22;10568;48.176;16.316;2023-07-31T08:52:08;26.10;99.90
20815;DHT22;10568;48.176;16.316;2023-07-31T08:54:34;26.60;99.90
20815;DHT22;10568;48.176;16.316;2023-07-31T08:57:00;26.50;99.90
20815;DHT22;10568;48.176;16.316;2023-07-31T08:59:29;26.40;99.90
20815;DHT22;10568;48.176;16.316;2023-07-31T09:01:58;26.60;99.90
20815;DHT22;10568;48.176;16.316;2023-07-31T09:04:27;26.30;99.90
20815;DHT22;10568;48.176;16.316;2023-07-31T09:06:57;26.40;99.90
20815;DHT22;10568;48.176;16.316;2023-07-31T09:09:25;26.40;99.90
20815;DHT22;10568;48.176;16.316;2023-07-31T09:11:51;26.90;99.90
20815;DHT22;10568;48.176;16.316;2023-07-31T09:14:17;26.50;99.90
20815;DHT22;10568;48.176;16.316;2023-07-31T09:16:56;26.30;99.90
20815;DHT22;10568;48.176;16.316;2023-07-31T09:19:34;26.20;99.90
20815;DHT22;10568;48.176;16.316;2023-07-31T09:22:02;26.20;99.90
20815;DHT22;10568;48.176;16.316;2023-07-31T09:24:30;26.20;99.90
20815;DHT22;10568;48.176;16.316;2023-07-31T09:26:57;26.50;99.90
20815;DHT22;10568;48.176;16.316;2023-07-31T09:29:24;26.80;98.40
20815;DHT22;10568;48.176;16.316;2023-07-31T09:31:52;26.60;99.90
20815;DHT22;10568;48.176;16.316;2023-07-31T09:34:18;26.70;99.90
20815;DHT22;10568;48.176;16.316;2023-07-31T09:36:49;26.90;99.80
20815;DHT22;10568;48.176;16.316;2023-07-31T09:39:16;27.10;99.90
20815;DHT22;10568;48.176;16.316;2023-07-31T09:41:44;27.10;99.90
20815;DHT22;10568;48.176;16.316;2023-07-31T09:44:11;27.10;99.90
20815;DHT22;10568;48.176;16.316;2023-07-31T09:46:37;27.60;99.90
20815;DHT22;10568;48.176;16.316;2023-07-31T09:49:13;27.90;99.90
20815;DHT22;10568;48.176;16.316;2023-07-31T09:51:41;27.70;98.90
20815;DHT22;10568;48.176;16.316;2023-07-31T09:54:15;27.70;96.20
20815;DHT22;10568;48.176;16.316;2023-07-31T09:56:46;27.80;98.60
20815;DHT22;10568;48.176;16.316;2023-07-31T09:59:16;27.20;97.70
20815;DHT22;10568;48.176;16.316;2023-07-31T10:01:43;26.70;96.10
20815;DHT22;10568;48.176;16.316;2023-07-31T10:04:10;26.90;98.40
20815;DHT22;10568;48.176;16.316;2023-07-31T10:06:37;27.40;99.90
20815;DHT22;10568;48.176;16.316;2023-07-31T10:09:08;27.50;98.50
20815;DHT22;10568;48.176;16.316;2023-07-31T10:11:47;27.80;96.70
20815;DHT22;10568;48.176;16.316;2023-07-31T10:14:19;28.00;95.80
20815;DHT22;10568;48.176;16.316;2023-07-31T10:16:45;28.20;99.90
20815;DHT22;10568;48.176;16.316;2023-07-31T10:19:11;28.50;97.80
20815;DHT22;10568;48.176;16.316;2023-07-31T10:21:37;28.90;95.10
20815;DHT22;10568;48.176;16.316;2023-07-31T10:24:07;28.90;97.80
20815;DHT22;10568;48.176;16.316;2023-07-31T10:26:34;29.00;94.50
20815;DHT22;10568;48.176;16.316;2023-07-31T10:29:05;29.00;95.50
20815;DHT22;10568;48.176;16.316;2023-07-31T10:31:34;29.10;93.80
20815;DHT22;10568;48.176;16.316;2023-07-31T10:34:00;29.10;95.50
20815;DHT22;10568;48.176;16.316;2023-07-31T10:36:28;29.70;98.30
20815;DHT22;10568;48.176;16.316;2023-07-31T10:38:55;29.50;93.40
20815;DHT22;10568;48.176;16.316;2023-07-31T10:41:29;29.60;92.90
20815;DHT22;10568;48.176;16.316;2023-07-31T10:44:00;29.40;95.40
20815;DHT22;10568;48.176;16.316;2023-07-31T10:46:27;29.70;93.00
20815;DHT22;10568;48.176;16.316;2023-07-31T10:49:03;29.80;92.90
20815;DHT22;10568;48.176;16.316;2023-07-31T10:51:35;30.00;95.00
20815;DHT22;10568;48.176;16.316;2023-07-31T10:54:19;30.00;92.60
20815;DHT22;10568;48.176;16.316;2023-07-31T10:56:45;30.30;93.50
20815;DHT22;10568;48.176;16.316;2023-07-31T10:59:14;30.30;92.00
20815;DHT22;10568;48.176;16.316;2023-07-31T11:01:56;30.00;92.70
20815;DHT22;10568;48.176;16.316;2023-07-31T11:04:26;30.30;95.60
20815;DHT22;10568;48.176;16.316;2023-07-31T11:06:59;30.20;89.30
20815;DHT22;10568;48.176;16.316;2023-07-31T11:09:30;30.20;89.50
20815;DHT22;10568;48.176;16.316;2023-07-31T11:11:57;30.10;93.00
20815;DHT22;10568;48.176;16.316;2023-07-31T11:14:23;30.40;93.70
20815;DHT22;10568;48.176;16.316;2023-07-31T11:16:52;30.60;90.50
20815;DHT22;10568;48.176;16.316;2023-07-31T11:19:24;30.40;90.90
20815;DHT22;10568;48.176;16.316;2023-07-31T11:21:52;30.30;92.60
20815;DHT22;10568;48.176;16.316;2023-07-31T11:24:18;29.60;92.50
20815;DHT22;10568;48.176;16.316;2023-07-31T11:26:51;29.60;92.30
20815;DHT22;10568;48.176;16.316;2023-07-31T11:29:17;29.90;91.00
20815;DHT22;10568;48.176;16.316;2023-07-31T11:31:44;29.90;90.60
20815;DHT22;10568;48.176;16.316;2023-07-31T11:34:10;29.60;93.50
20815;DHT22;10568;48.176;16.316;2023-07-31T11:36:36;29.80;88.90
20815;DHT22;10568;48.176;16.316;2023-07-31T11:39:09;29.90;90.50
20815;DHT22;10568;48.176;16.316;2023-07-31T11:41:35;30.10;94.00
20815;DHT22;10568;48.176;16.316;2023-07-31T11:44:01;30.00;91.90
20815;DHT22;10568;48.176;16.316;2023-07-31T11:46:30;30.30;90.50
20815;DHT22;10568;48.176;16.316;2023-07-31T11:48:59;30.60;90.80
20815;DHT22;10568;48.176;16.316;2023-07-31T11:51:26;30.60;90.80
20815;DHT22;10568;48.176;16.316;2023-07-31T11:54:00;30.50;88.40
20815;DHT22;10568;48.176;16.316;2023-07-31T11:56:27;30.70;85.10
20815;DHT22;10568;48.176;16.316;2023-07-31T11:58:57;30.50;89.00
20815;DHT22;10568;48.176;16.316;2023-07-31T12:01:24;30.20;91.40
20815;DHT22;10568;48.176;16.316;2023-07-31T12:03:53;30.10;84.60
20815;DHT22;10568;48.176;16.316;2023-07-31T12:06:19;30.30;86.30
20815;DHT22;10568;48.176;16.316;2023-07-31T12:08:46;30.20;92.90
20815;DHT22;10568;48.176;16.316;2023-07-31T12:11:12;30.20;90.10
20815;DHT22;10568;48.176;16.316;2023-07-31T12:13:43;30.40;86.80
20815;DHT22;10568;48.176;16.316;2023-07-31T12:16:09;30.50;84.30
20815;DHT22;10568;48.176;16.316;2023-07-31T12:18:36;30.90;82.60
20815;DHT22;10568;48.176;16.316;2023-07-31T12:21:05;30.80;83.80
20815;DHT22;10568;48.176;16.316;2023-07-31T12:23:32;31.20;90.00
20815;DHT22;10568;48.176;16.316;2023-07-31T12:26:12;30.80;90.80
20815;DHT22;10568;48.176;16.316;2023-07-31T12:28:46;31.10;88.90
20815;DHT22;10568;48.176;16.316;2023-07-31T12:33:39;31.30;83.90
20815;DHT22;10568;48.176;16.316;2023-07-31T12:36:13;31.40;90.50
20815;DHT22;10568;48.176;16.316;2023-07-31T12:38:40;31.50;83.40
20815;DHT22;10568;48.176;16.316;2023-07-31T12:41:05;31.80;87.00
20815;DHT22;10568;48.176;16.316;2023-07-31T12:43:39;31.70;79.90
20815;DHT22;10568;48.176;16.316;2023-07-31T12:46:05;32.00;82.20
20815;DHT22;10568;48.176;16.316;2023-07-31T12:48:33;31.50;80.60
20815;DHT22;10568;48.176;16.316;2023-07-31T12:50:59;32.10;86.40
20815;DHT22;10568;48.176;16.316;2023-07-31T12:53:25;31.80;81.10
20815;DHT22;10568;48.176;16.316;2023-07-31T12:55:50;32.00;81.60
20815;DHT22;10568;48.176;16.316;2023-07-31T12:58:16;31.90;80.00
20815;DHT22;10568;48.176;16.316;2023-07-31T13:00:42;31.70;83.50
20815;DHT22;10568;48.176;16.316;2023-07-31T13:03:08;31.80;79.30
20815;DHT22;10568;48.176;16.316;2023-07-31T13:05:34;31.70;79.80
20815;DHT22;10568;48.176;16.316;2023-07-31T13:08:00;32.10;90.20
20815;DHT22;10568;48.176;16.316;2023-07-31T13:10:27;31.80;78.60
20815;DHT22;10568;48.176;16.316;2023-07-31T13:12:54;31.50;78.90
20815;DHT22;10568;48.176;16.316;2023-07-31T13:15:19;32.00;80.10
20815;DHT22;10568;48.176;16.316;2023-07-31T13:17:46;32.10;85.80
20815;DHT22;10568;48.176;16.316;2023-07-31T13:20:12;32.20;82.30
20815;DHT22;10568;48.176;16.316;2023-07-31T13:22:38;32.30;78.90
20815;DHT22;10568;48.176;16.316;2023-07-31T13:25:04;32.50;80.50
20815;DHT22;10568;48.176;16.316;2023-07-31T13:27:30;32.40;80.70
20815;DHT22;10568;48.176;16.316;2023-07-31T13:29:56;32.30;78.60
20815;DHT22;10568;48.176;16.316;2023-07-31T13:32:22;32.30;77.80
20815;DHT22;10568;48.176;16.316;2023-07-31T13:34:48;31.70;78.80
20815;DHT22;10568;48.176;16.316;2023-07-31T13:37:14;31.50;75.00
20815;DHT22;10568;48.176;16.316;2023-07-31T13:39:40;31.40;73.70
20815;DHT22;10568;48.176;16.316;2023-07-31T13:42:08;31.40;72.70
20815;DHT22;10568;48.176;16.316;2023-07-31T13:44:38;31.60;74.50
20815;DHT22;10568;48.176;16.316;2023-07-31T13:47:03;31.50;80.90
20815;DHT22;10568;48.176;16.316;2023-07-31T13:49:30;30.90;80.70
20815;DHT22;10568;48.176;16.316;2023-07-31T13:51:55;30.50;77.40
20815;DHT22;10568;48.176;16.316;2023-07-31T13:54:22;30.60;81.70
20815;DHT22;10568;48.176;16.316;2023-07-31T13:56:48;30.70;76.80
20815;DHT22;10568;48.176;16.316;2023-07-31T13:59:14;30.70;77.60
20815;DHT22;10568;48.176;16.316;2023-07-31T14:01:43;30.50;83.60
20815;DHT22;10568;48.176;16.316;2023-07-31T14:04:08;30.40;80.40
20815;DHT22;10568;48.176;16.316;2023-07-31T14:06:34;30.10;82.00
20815;DHT22;10568;48.176;16.316;2023-07-31T14:09:00;30.10;80.00
20815;DHT22;10568;48.176;16.316;2023-07-31T14:11:26;29.70;80.30
20815;DHT22;10568;48.176;16.316;2023-07-31T14:13:52;29.20;81.20
20815;DHT22;10568;48.176;16.316;2023-07-31T14:16:18;29.10;84.60
20815;DHT22;10568;48.176;16.316;2023-07-31T14:18:44;29.10;80.70
20815;DHT22;10568;48.176;16.316;2023-07-31T14:21:12;29.10;79.60
20815;DHT22;10568;48.176;16.316;2023-07-31T14:23:38;28.80;81.70
20815;DHT22;10568;48.176;16.316;2023-07-31T14:26:04;28.60;85.60
20815;DHT22;10568;48.176;16.316;2023-07-31T14:28:29;28.40;78.20
20815;DHT22;10568;48.176;16.316;2023-07-31T14:30:55;28.20;83.80
20815;DHT22;10568;48.176;16.316;2023-07-31T14:33:21;28.10;80.80
20815;DHT22;10568;48.176;16.316;2023-07-31T14:35:47;27.90;77.30
20815;DHT22;10568;48.176;16.316;2023-07-31T14:38:12;28.00;78.50
20815;DHT22;10568;48.176;16.316;2023-07-31T14:40:38;28.00;86.30
20815;DHT22;10568;48.176;16.316;2023-07-31T14:43:04;28.10;81.60
20815;DHT22;10568;48.176;16.316;2023-07-31T14:45:30;28.20;87.20
20815;DHT22;10568;48.176;16.316;2023-07-31T14:47:56;28.30;82.50
20815;DHT22;10568;48.176;16.316;2023-07-31T14:50:21;28.30;82.30
20815;DHT22;10568;48.176;16.316;2023-07-31T14:52:49;28.20;77.60
20815;DHT22;10568;48.176;16.316;2023-07-31T14:55:15;28.00;80.50
20815;DHT22;10568;48.176;16.316;2023-07-31T14:57:40;27.90;81.70
20815;DHT22;10568;48.176;16.316;2023-07-31T15:00:07;27.70;81.00
20815;DHT22;10568;48.176;16.316;2023-07-31T15:02:37;27.60;78.70
20815;DHT22;10568;48.176;16.316;2023-07-31T15:05:03;27.40;80.40
20815;DHT22;10568;48.176;16.316;2023-07-31T15:07:29;27.50;85.90
20815;DHT22;10568;48.176;16.316;2023-07-31T15:09:55;27.40;80.00
20815;DHT22;10568;48.176;16.316;2023-07-31T15:12:21;27.30;81.20
20815;DHT22;10568;48.176;16.316;2023-07-31T15:14:48;27.30;81.00
20815;DHT22;10568;48.176;16.316;2023-07-31T15:17:14;27.30;83.10
20815;DHT22;10568;48.176;16.316;2023-07-31T15:19:40;27.30;79.30
20815;DHT22;10568;48.176;16.316;2023-07-31T15:22:06;27.20;81.10
20815;DHT22;10568;48.176;16.316;2023-07-31T15:24:32;27.00;79.10
20815;DHT22;10568;48.176;16.316;2023-07-31T15:26:58;27.00;82.40
20815;DHT22;10568;48.176;16.316;2023-07-31T15:29:24;27.00;78.50